Time;durP1;ratioP1;P1;durP2;ratioP2;P2;SDS_P1;SDS_P2;PMS_P1;PMS_P2;Temp;Humidity;BMP_temperature;BMP_pressure;BME280_temperature;BME280_humidity;BME280_pressure;Samples;Min_cycle;Max_cycle;Signal;HPM_P1;HPM_P2
2023/04/18 00:02:16;;;;;;;6.88;6.18;;;;;;;;;;10248709;28;20205;-76
2023/04/18 00:07:17;;;;;;;6.90;5.60;;;;;;;;;;10248082;28;20256;-78
2023/04/18 00:12:19;;;;;;;11.10;6.20;;;;;;;;;;10251039;28;20214;-75
2023/04/18 00:17:21;;;;;;;9.65;5.80;;;;;;;;;;10242415;28;20302;-76
2023/04/18 00:22:22;;;;;;;8.65;6.40;;;;;;;;;;10254799;28;20254;-77
2023/04/18 00:27:23;;;;;;;7.90;6.15;;;;;;;;;;10255418;28;20228;-76
2023/04/18 00:32:25;;;;;;;11.80;7.15;;;;;;;;;;10262934;28;20228;-78
2023/04/18 00:37:26;;;;;;;13.60;6.55;;;;;;;;;;10235208;28;21658;-79
2023/04/18 00:42:28;;;;;;;7.55;6.43;;;;;;;;;;10240321;28;20336;-76
2023/04/18 00:47:29;;;;;;;11.35;6.00;;;;;;;;;;10238334;28;20213;-77
2023/04/18 00:52:32;;;;;;;11.32;6.18;;;;;;;;;;10255172;28;20701;-75
2023/04/18 00:57:33;;;;;;;8.82;6.22;;;;;;;;;;10237738;28;20217;-77
2023/04/18 01:02:34;;;;;;;8.52;6.53;;;;;;;;;;10238214;28;20214;-76
2023/04/18 01:07:39;;;;;;;10.02;6.88;;;;;;;;;;10247167;28;20279;-77
2023/04/18 01:12:40;;;;;;;10.82;6.20;;;;;;;;;;10263317;28;20253;-74
2023/04/18 01:17:42;;;;;;;7.78;5.75;;;;;;;;;;10229201;28;20222;-76
2023/04/18 01:22:43;;;;;;;11.15;6.43;;;;;;;;;;10232924;28;20232;-76
2023/04/18 01:27:44;;;;;;;7.82;6.45;;;;;;;;;;10231163;28;20838;-75
2023/04/18 01:32:45;;;;;;;9.80;6.68;;;;;;;;;;10228833;28;20284;-77
2023/04/18 01:37:46;;;;;;;9.48;6.93;;;;;;;;;;10233203;28;20224;-77
2023/04/18 01:42:47;;;;;;;6.97;6.28;;;;;;;;;;10249825;28;20312;-74
2023/04/18 01:47:49;;;;;;;9.95;6.65;;;;;;;;;;10223815;28;20519;-74
2023/04/18 01:52:50;;;;;;;8.63;6.90;;;;;;;;;;10230802;28;20248;-76
2023/04/18 01:57:51;;;;;;;11.38;6.80;;;;;;;;;;10238110;28;20306;-77
2023/04/18 02:02:53;;;;;;;10.68;6.35;;;;;;;;;;10240785;28;20323;-78
2023/04/18 02:07:55;;;;;;;8.15;6.95;;;;;;;;;;10247592;28;20217;-76
2023/04/18 02:12:56;;;;;;;8.85;6.60;;;;;;;;;;10263936;28;20230;-76
2023/04/18 02:17:58;;;;;;;10.57;6.88;;;;;;;;;;10246419;28;20221;-75
2023/04/18 02:23:00;;;;;;;8.57;6.78;;;;;;;;;;10277629;28;20209;-78
2023/04/18 02:28:04;;;;;;;8.77;6.25;;;;;;;;;;10266779;28;20225;-75
2023/04/18 02:33:05;;;;;;;13.38;6.63;;;;;;;;;;10230533;28;20236;-77
2023/04/18 02:38:06;;;;;;;9.73;6.78;;;;;;;;;;10262916;28;20228;-77
2023/04/18 02:43:07;;;;;;;6.63;5.90;;;;;;;;;;10263491;28;20307;-77
2023/04/18 02:48:08;;;;;;;12.07;5.90;;;;;;;;;;10260644;28;20225;-78
2023/04/18 02:53:09;;;;;;;12.93;6.43;;;;;;;;;;10247720;28;20910;-76
2023/04/18 02:58:23;;;;;;;6.60;5.72;;;;;;;;;;10248578;28;20217;-78
2023/04/18 03:03:44;;;;;;;9.05;7.07;;;;;;;;;;10258656;28;20995;-76
2023/04/18 03:09:05;;;;;;;8.95;6.60;;;;;;;;;;10248861;28;21733;-78
2023/04/18 03:14:09;;;;;;;10.75;6.20;;;;;;;;;;10240076;28;20218;-78
2023/04/18 03:19:28;;;;;;;13.15;6.05;;;;;;;;;;10243412;28;20301;-76
2023/04/18 03:24:32;;;;;;;8.18;6.53;;;;;;;;;;10252716;28;20217;-76
2023/04/18 03:29:36;;;;;;;6.65;5.68;;;;;;;;;;10244178;28;20222;-73
2023/04/18 03:34:37;;;;;;;10.20;6.03;;;;;;;;;;10254674;28;20252;-76
2023/04/18 03:39:41;;;;;;;8.05;6.38;;;;;;;;;;10254895;28;20313;-75
2023/04/18 03:44:42;;;;;;;7.82;5.82;;;;;;;;;;10247417;28;20284;-78
2023/04/18 03:49:44;;;;;;;14.30;7.00;;;;;;;;;;10249968;28;20304;-76
2023/04/18 03:54:45;;;;;;;10.93;6.93;;;;;;;;;;10255672;28;20327;-75
2023/04/18 03:59:48;;;;;;;9.40;6.07;;;;;;;;;;10237160;28;20881;-77
2023/04/18 04:04:49;;;;;;;7.32;6.00;;;;;;;;;;10232089;28;20224;-76
2023/04/18 04:09:50;;;;;;;7.78;6.20;;;;;;;;;;10214484;28;20317;-76
2023/04/18 04:14:51;;;;;;;8.35;6.25;;;;;;;;;;10235071;28;20221;-76
2023/04/18 04:19:53;;;;;;;7.95;5.82;;;;;;;;;;10216535;28;20273;-76
2023/04/18 04:24:56;;;;;;;7.65;5.80;;;;;;;;;;10233371;28;20315;-75
2023/04/18 04:30:04;;;;;;;8.88;5.85;;;;;;;;;;10242013;28;20225;-79
2023/04/18 04:35:07;;;;;;;10.38;6.72;;;;;;;;;;10270099;28;20298;-78
2023/04/18 04:40:09;;;;;;;7.82;5.85;;;;;;;;;;10237209;28;20221;-76
2023/04/18 04:45:19;;;;;;;8.25;5.97;;;;;;;;;;10228313;28;20261;-77
2023/04/18 04:50:20;;;;;;;9.32;5.38;;;;;;;;;;10254130;28;20883;-76
2023/04/18 04:55:21;;;;;;;7.15;5.53;;;;;;;;;;10234875;28;20213;-75
2023/04/18 05:00:24;;;;;;;9.05;6.00;;;;;;;;;;10239074;28;20221;-78
2023/04/18 05:05:25;;;;;;;7.15;5.30;;;;;;;;;;10245942;28;20357;-76
2023/04/18 05:10:26;;;;;;;6.53;5.75;;;;;;;;;;10234984;28;20298;-79
2023/04/18 05:15:27;;;;;;;8.68;6.07;;;;;;;;;;10225647;28;20264;-76
2023/04/18 05:20:28;;;;;;;6.72;5.57;;;;;;;;;;10239405;28;20268;-75
2023/04/18 05:25:30;;;;;;;8.63;5.53;;;;;;;;;;10223542;28;20246;-76
2023/04/18 05:30:31;;;;;;;6.82;5.20;;;;;;;;;;10240873;28;20728;-79
2023/04/18 05:35:32;;;;;;;6.07;5.45;;;;;;;;;;10228462;28;20226;-76
2023/04/18 05:40:33;;;;;;;6.15;5.55;;;;;;;;;;10235968;28;20292;-76
2023/04/18 05:45:35;;;;;;;6.10;5.47;;;;;;;;;;10241142;28;20684;-77
2023/04/18 05:50:36;;;;;;;7.45;5.97;;;;;;;;;;10219640;28;21088;-75
2023/04/18 05:55:39;;;;;;;7.30;5.68;;;;;;;;;;10238613;28;20236;-77
2023/04/18 06:00:40;;;;;;;6.18;5.53;;;;;;;;;;10241486;28;20225;-77
2023/04/18 06:05:42;;;;;;;6.85;5.32;;;;;;;;;;10220095;28;20214;-76
2023/04/18 06:10:43;;;;;;;6.47;5.22;;;;;;;;;;10214304;28;20263;-76
2023/04/18 06:15:44;;;;;;;7.07;5.72;;;;;;;;;;10246360;28;20222;-77
2023/04/18 06:20:45;;;;;;;7.22;5.30;;;;;;;;;;10233631;28;21943;-75
2023/04/18 06:25:46;;;;;;;5.75;5.13;;;;;;;;;;10253403;28;20742;-77
2023/04/18 06:30:47;;;;;;;8.27;6.05;;;;;;;;;;10226067;28;20240;-76
2023/04/18 06:35:48;;;;;;;8.45;6.03;;;;;;;;;;10246679;28;20225;-73
2023/04/18 06:40:48;;;;;;;10.20;6.47;;;;;;;;;;10243981;28;20226;-76
2023/04/18 06:45:50;;;;;;;8.05;6.65;;;;;;;;;;10246124;28;20231;-75
2023/04/18 06:50:51;;;;;;;8.35;5.88;;;;;;;;;;10245596;28;20225;-75
2023/04/18 06:55:52;;;;;;;9.15;6.70;;;;;;;;;;10231955;28;21039;-76
2023/04/18 07:00:53;;;;;;;7.00;5.65;;;;;;;;;;10244110;28;20245;-74
2023/04/18 07:05:55;;;;;;;6.95;6.00;;;;;;;;;;10232437;28;20231;-77
2023/04/18 07:10:56;;;;;;;8.15;6.38;;;;;;;;;;10249674;28;20218;-76
2023/04/18 07:15:57;;;;;;;7.40;6.65;;;;;;;;;;10244891;28;20234;-76
2023/04/18 07:20:58;;;;;;;5.93;5.32;;;;;;;;;;10231096;28;20225;-76
2023/04/18 07:26:01;;;;;;;5.72;5.22;;;;;;;;;;10249056;28;20245;-77
2023/04/18 07:31:03;;;;;;;8.23;6.15;;;;;;;;;;10228889;28;20317;-78
2023/04/18 07:36:04;;;;;;;7.63;5.97;;;;;;;;;;10248089;28;20218;-76
2023/04/18 07:41:05;;;;;;;9.77;5.60;;;;;;;;;;10247172;28;20380;-77
2023/04/18 07:46:07;;;;;;;5.95;5.45;;;;;;;;;;10249410;28;20221;-75
2023/04/18 07:51:08;;;;;;;7.57;5.80;;;;;;;;;;10237428;28;20226;-76
2023/04/18 07:56:09;;;;;;;5.82;4.90;;;;;;;;;;10243799;28;20221;-77
2023/04/18 08:01:14;;;;;;;5.60;5.10;;;;;;;;;;10216154;28;20232;-75
2023/04/18 08:06:15;;;;;;;7.50;5.60;;;;;;;;;;10247552;28;20793;-77
2023/04/18 08:11:16;;;;;;;8.57;5.30;;;;;;;;;;10239921;28;20221;-75
2023/04/18 08:16:17;;;;;;;9.75;6.47;;;;;;;;;;10226487;28;20217;-76
2023/04/18 08:21:19;;;;;;;7.80;5.10;;;;;;;;;;10240647;28;20229;-76
2023/04/18 08:26:20;;;;;;;6.10;5.30;;;;;;;;;;10240355;28;20229;-77
2023/04/18 08:31:22;;;;;;;5.88;5.38;;;;;;;;;;10247958;28;20730;-77
2023/04/18 08:36:23;;;;;;;6.05;5.05;;;;;;;;;;10227869;28;20221;-76
2023/04/18 08:41:26;;;;;;;9.18;5.40;;;;;;;;;;10243945;28;20253;-75
2023/04/18 08:46:28;;;;;;;5.00;4.55;;;;;;;;;;10250042;28;20815;-77
2023/04/18 08:51:31;;;;;;;5.40;4.90;;;;;;;;;;10246706;28;20221;-76
2023/04/18 08:56:36;;;;;;;6.05;5.45;;;;;;;;;;10234716;28;20225;-77
2023/04/18 09:01:51;;;;;;;5.45;4.90;;;;;;;;;;10239737;28;20237;-78
2023/04/18 09:06:52;;;;;;;4.65;4.25;;;;;;;;;;10258936;28;20694;-77
2023/04/18 09:12:06;;;;;;;6.85;4.13;;;;;;;;;;10226720;28;20221;-78
2023/04/18 09:17:07;;;;;;;4.28;3.90;;;;;;;;;;10245089;28;20222;-80
2023/04/18 09:22:08;;;;;;;3.97;3.67;;;;;;;;;;10246207;28;20221;-75
2023/04/18 09:27:13;;;;;;;4.20;3.78;;;;;;;;;;10245007;28;20219;-77
2023/04/18 09:32:29;;;;;;;3.80;3.20;;;;;;;;;;10242929;28;20728;-80
2023/04/18 09:37:30;;;;;;;2.85;2.65;;;;;;;;;;10244143;28;20671;-78
2023/04/18 09:42:36;;;;;;;2.75;2.63;;;;;;;;;;10238547;28;20214;-79
2023/04/18 09:47:37;;;;;;;3.22;3.03;;;;;;;;;;10247445;28;20245;-79
2023/04/18 09:52:39;;;;;;;2.97;2.88;;;;;;;;;;10254686;28;21175;-76
2023/04/18 09:57:42;;;;;;;2.72;2.63;;;;;;;;;;10238763;28;20248;-78
2023/04/18 10:02:48;;;;;;;2.97;2.78;;;;;;;;;;10248833;28;20216;-77
2023/04/18 10:07:49;;;;;;;2.95;2.80;;;;;;;;;;10251672;28;20229;-77
2023/04/18 10:12:52;;;;;;;3.75;3.33;;;;;;;;;;10235573;28;20232;-76
2023/04/18 10:17:55;;;;;;;3.25;2.85;;;;;;;;;;10234461;28;20439;-77
2023/04/18 10:22:56;;;;;;;2.65;2.55;;;;;;;;;;10239272;28;20244;-77
2023/04/18 10:27:58;;;;;;;3.20;3.00;;;;;;;;;;10249639;28;20225;-77
2023/04/18 10:33:19;;;;;;;3.95;3.75;;;;;;;;;;10272303;28;20234;-76
2023/04/18 10:38:22;;;;;;;3.35;3.15;;;;;;;;;;10258577;28;20221;-75
2023/04/18 10:43:23;;;;;;;3.03;2.83;;;;;;;;;;10249877;28;20217;-76
2023/04/18 10:48:28;;;;;;;3.53;2.95;;;;;;;;;;10253949;28;20220;-76
2023/04/18 10:53:29;;;;;;;4.10;3.80;;;;;;;;;;10259136;28;20333;-75
2023/04/18 10:58:31;;;;;;;3.38;3.15;;;;;;;;;;10243926;28;20705;-78
2023/04/18 11:03:36;;;;;;;3.17;2.97;;;;;;;;;;10240950;28;20225;-76
2023/04/18 11:08:37;;;;;;;3.15;3.00;;;;;;;;;;10252849;28;20273;-76
2023/04/18 11:13:54;;;;;;;3.13;2.92;;;;;;;;;;10256629;28;20222;-77
2023/04/18 11:18:56;;;;;;;2.97;2.83;;;;;;;;;;10260108;28;20664;-75
2023/04/18 11:23:57;;;;;;;3.00;2.90;;;;;;;;;;10257636;28;20853;-77
2023/04/18 11:28:58;;;;;;;2.47;2.38;;;;;;;;;;10239209;28;20241;-75
2023/04/18 11:33:59;;;;;;;4.40;2.92;;;;;;;;;;10235938;28;20236;-75
2023/04/18 11:39:00;;;;;;;3.60;3.30;;;;;;;;;;10267928;28;20244;-73
2023/04/18 11:44:05;;;;;;;2.83;2.72;;;;;;;;;;10235580;28;20224;-75
2023/04/18 11:49:06;;;;;;;3.55;3.35;;;;;;;;;;10254631;28;20221;-75
2023/04/18 11:54:27;;;;;;;2.83;2.63;;;;;;;;;;10256048;28;20217;-75
2023/04/18 11:59:28;;;;;;;3.70;3.40;;;;;;;;;;10221793;28;20229;-74
2023/04/18 12:04:29;;;;;;;3.40;3.17;;;;;;;;;;10216774;28;20228;-76
2023/04/18 12:09:30;;;;;;;3.42;3.22;;;;;;;;;;10240155;28;20244;-75
2023/04/18 12:14:31;;;;;;;3.35;3.22;;;;;;;;;;10223635;28;21128;-77
2023/04/18 12:19:33;;;;;;;3.55;3.35;;;;;;;;;;10223702;28;20209;-76
2023/04/18 12:24:34;;;;;;;4.47;3.88;;;;;;;;;;10238749;28;20225;-76
2023/04/18 12:29:35;;;;;;;4.65;4.35;;;;;;;;;;10148558;28;20348;-75
2023/04/18 12:34:36;;;;;;;4.63;4.32;;;;;;;;;;10200761;28;20222;-77
2023/04/18 12:39:37;;;;;;;4.00;3.80;;;;;;;;;;10202356;28;20217;-75
2023/04/18 12:44:38;;;;;;;4.20;4.00;;;;;;;;;;10206395;28;20217;-73
2023/04/18 12:49:39;;;;;;;4.15;3.85;;;;;;;;;;10237336;28;20229;-78
2023/04/18 12:54:40;;;;;;;5.78;4.70;;;;;;;;;;10253987;28;20231;-76
2023/04/18 12:59:41;;;;;;;4.57;4.20;;;;;;;;;;10254043;28;20613;-73
2023/04/18 13:04:42;;;;;;;4.53;4.22;;;;;;;;;;10255651;28;20217;-74
2023/04/18 13:09:45;;;;;;;4.72;4.30;;;;;;;;;;10246098;28;20712;-76
2023/04/18 13:14:46;;;;;;;6.32;3.85;;;;;;;;;;10245821;28;20840;-76
2023/04/18 13:19:47;;;;;;;5.47;4.35;;;;;;;;;;10246052;28;20221;-74
2023/04/18 13:24:48;;;;;;;4.55;4.20;;;;;;;;;;10244282;28;20244;-77
2023/04/18 13:29:49;;;;;;;4.90;4.40;;;;;;;;;;10263247;28;20218;-78
2023/04/18 13:34:50;;;;;;;4.95;4.47;;;;;;;;;;10245985;28;20234;-78
2023/04/18 13:39:51;;;;;;;9.48;4.85;;;;;;;;;;10245635;28;20625;-74
2023/04/18 13:44:52;;;;;;;5.28;4.82;;;;;;;;;;10258310;28;20276;-76
2023/04/18 13:49:53;;;;;;;5.30;4.88;;;;;;;;;;10239808;28;20491;-77
2023/04/18 13:54:54;;;;;;;8.70;4.63;;;;;;;;;;10248107;28;20226;-76
2023/04/18 13:59:55;;;;;;;4.85;4.45;;;;;;;;;;10254230;28;20266;-76
2023/04/18 14:04:56;;;;;;;5.03;4.03;;;;;;;;;;10246059;28;20221;-75
2023/04/18 14:09:57;;;;;;;4.28;3.97;;;;;;;;;;10266272;28;20268;-76
2023/04/18 14:14:58;;;;;;;5.47;4.50;;;;;;;;;;10257605;28;20631;-77
2023/04/18 14:20:00;;;;;;;5.90;4.97;;;;;;;;;;10226430;28;20695;-76
2023/04/18 14:25:01;;;;;;;4.40;4.10;;;;;;;;;;10252200;28;20301;-78
2023/04/18 14:30:03;;;;;;;6.95;4.65;;;;;;;;;;10244621;28;20224;-76
2023/04/18 14:35:06;;;;;;;6.47;4.57;;;;;;;;;;10230520;28;20218;-76
2023/04/18 14:40:08;;;;;;;4.88;4.47;;;;;;;;;;10246063;28;20226;-78
2023/04/18 14:45:10;;;;;;;5.30;5.00;;;;;;;;;;10267931;28;20209;-75
2023/04/18 14:50:11;;;;;;;5.20;4.38;;;;;;;;;;10249900;28;20739;-76
2023/04/18 14:55:12;;;;;;;5.50;5.00;;;;;;;;;;10237262;28;20218;-75
2023/04/18 15:00:14;;;;;;;5.68;4.97;;;;;;;;;;10265116;28;20221;-76
2023/04/18 15:05:16;;;;;;;4.95;4.30;;;;;;;;;;10248041;28;20301;-76
2023/04/18 15:10:18;;;;;;;4.80;4.25;;;;;;;;;;10253981;28;20721;-77
2023/04/18 15:15:19;;;;;;;6.07;4.88;;;;;;;;;;10273895;28;20213;-76
2023/04/18 15:20:20;;;;;;;4.53;4.18;;;;;;;;;;10273566;28;20302;-75
2023/04/18 15:25:21;;;;;;;7.47;4.95;;;;;;;;;;10257833;28;20591;-76
2023/04/18 15:30:22;;;;;;;5.20;4.45;;;;;;;;;;10271371;28;20222;-77
2023/04/18 15:35:23;;;;;;;5.22;4.60;;;;;;;;;;10258794;28;20627;-78
2023/04/18 15:40:25;;;;;;;4.72;4.40;;;;;;;;;;10263845;28;20237;-76
2023/04/18 15:45:26;;;;;;;4.93;4.43;;;;;;;;;;10255802;28;21264;-77
2023/04/18 15:50:27;;;;;;;4.25;3.95;;;;;;;;;;10271570;28;20273;-76
2023/04/18 15:55:28;;;;;;;5.10;4.53;;;;;;;;;;10253075;28;21185;-78
2023/04/18 16:00:28;;;;;;;4.78;4.38;;;;;;;;;;10261965;28;20221;-78
2023/04/18 16:05:30;;;;;;;6.32;4.55;;;;;;;;;;10246920;28;20236;-78
2023/04/18 16:10:31;;;;;;;5.05;4.43;;;;;;;;;;10239563;28;20217;-77
2023/04/18 16:15:34;;;;;;;4.38;3.97;;;;;;;;;;10270525;28;20335;-76
2023/04/18 16:20:35;;;;;;;4.63;4.20;;;;;;;;;;10244705;28;20220;-76
2023/04/18 16:25:36;;;;;;;7.80;5.05;;;;;;;;;;10266199;28;20233;-77
2023/04/18 16:30:37;;;;;;;5.43;4.55;;;;;;;;;;10215633;28;20258;-76
2023/04/18 16:35:38;;;;;;;5.22;4.50;;;;;;;;;;10252598;28;20221;-72
2023/04/18 16:40:39;;;;;;;4.80;4.50;;;;;;;;;;10238833;28;20229;-76
2023/04/18 16:45:40;;;;;;;5.45;4.28;;;;;;;;;;10245539;28;21458;-75
2023/04/18 16:50:44;;;;;;;4.47;4.10;;;;;;;;;;10263901;28;20709;-77
2023/04/18 16:55:45;;;;;;;5.90;4.50;;;;;;;;;;10255047;28;20314;-76
2023/04/18 17:00:46;;;;;;;4.65;4.35;;;;;;;;;;10259662;28;20222;-76
2023/04/18 17:05:47;;;;;;;7.05;5.10;;;;;;;;;;10212754;28;20221;-76
2023/04/18 17:10:51;;;;;;;5.03;4.53;;;;;;;;;;10247688;28;20850;-75
2023/04/18 17:15:52;;;;;;;5.70;5.20;;;;;;;;;;10260840;28;20222;-76
2023/04/18 17:20:53;;;;;;;5.05;4.28;;;;;;;;;;10246225;28;20313;-74
2023/04/18 17:25:54;;;;;;;4.80;4.40;;;;;;;;;;10250475;28;20221;-78
2023/04/18 17:30:57;;;;;;;4.50;4.10;;;;;;;;;;10251348;28;20271;-76
2023/04/18 17:35:58;;;;;;;4.97;4.57;;;;;;;;;;10267477;28;20233;-77
2023/04/18 17:40:59;;;;;;;6.70;4.50;;;;;;;;;;10238630;28;20222;-75
2023/04/18 17:46:02;;;;;;;5.05;4.53;;;;;;;;;;10259552;28;20217;-77
2023/04/18 17:51:03;;;;;;;6.63;3.97;;;;;;;;;;10239236;28;20225;-78
2023/04/18 17:56:05;;;;;;;8.20;5.00;;;;;;;;;;10237648;28;20225;-79
2023/04/18 18:01:15;;;;;;;4.40;4.07;;;;;;;;;;10239958;28;20287;-79
2023/04/18 18:06:16;;;;;;;5.78;4.45;;;;;;;;;;10246566;28;20308;-78
2023/04/18 18:11:17;;;;;;;7.28;3.50;;;;;;;;;;10234029;28;21001;-78
2023/04/18 18:16:18;;;;;;;2.33;2.22;;;;;;;;;;10239165;28;20225;-77
2023/04/18 18:21:19;;;;;;;2.88;1.77;;;;;;;;;;10257683;28;20787;-77
2023/04/18 18:26:20;;;;;;;1.70;1.60;;;;;;;;;;10236472;28;20220;-79
2023/04/18 18:31:23;;;;;;;1.08;1.08;;;;;;;;;;10256102;28;20300;-76
2023/04/18 18:36:26;;;;;;;1.30;1.30;;;;;;;;;;10241068;28;20240;-76
2023/04/18 18:41:27;;;;;;;1.45;1.45;;;;;;;;;;10236262;28;20296;-80
2023/04/18 18:46:28;;;;;;;1.40;1.40;;;;;;;;;;10240702;28;20232;-79
2023/04/18 18:51:29;;;;;;;1.17;1.17;;;;;;;;;;10244975;28;20225;-78
2023/04/18 18:56:30;;;;;;;1.13;1.13;;;;;;;;;;10255020;28;20222;-78
2023/04/18 19:01:31;;;;;;;0.90;0.90;;;;;;;;;;10268515;28;20229;-78
2023/04/18 19:06:32;;;;;;;1.30;1.20;;;;;;;;;;10247046;28;20284;-77
2023/04/18 19:11:33;;;;;;;1.38;1.00;;;;;;;;;;10248653;28;20213;-78
2023/04/18 19:16:35;;;;;;;1.10;1.10;;;;;;;;;;10254460;28;20593;-79
2023/04/18 19:21:38;;;;;;;4.35;1.23;;;;;;;;;;10227017;28;20226;-75
2023/04/18 19:26:39;;;;;;;1.40;1.30;;;;;;;;;;10250633;28;20222;-79
2023/04/18 19:31:42;;;;;;;1.30;1.20;;;;;;;;;;10248039;28;20221;-78
2023/04/18 19:36:43;;;;;;;1.30;1.30;;;;;;;;;;10251433;28;20253;-77
2023/04/18 19:41:44;;;;;;;1.30;1.30;;;;;;;;;;10258320;28;20716;-77
2023/04/18 19:46:45;;;;;;;1.35;1.35;;;;;;;;;;10262999;28;20450;-79
2023/04/18 19:51:47;;;;;;;1.92;1.83;;;;;;;;;;10244133;28;20258;-79
2023/04/18 19:56:49;;;;;;;1.27;1.27;;;;;;;;;;10234099;28;20221;-78
2023/04/18 20:01:50;;;;;;;1.00;1.00;;;;;;;;;;10246762;28;20225;-79
2023/04/18 20:06:52;;;;;;;1.33;1.25;;;;;;;;;;10230926;28;20225;-79
2023/04/18 20:11:53;;;;;;;1.40;1.27;;;;;;;;;;10249820;28;20217;-76
2023/04/18 20:16:54;;;;;;;1.90;1.13;;;;;;;;;;10249629;28;20234;-77
2023/04/18 20:21:56;;;;;;;2.08;1.38;;;;;;;;;;10245925;28;20229;-77
2023/04/18 20:26:58;;;;;;;1.27;1.25;;;;;;;;;;10244260;28;20790;-76
2023/04/18 20:31:59;;;;;;;1.75;1.45;;;;;;;;;;10238693;28;20228;-76
2023/04/18 20:37:00;;;;;;;1.20;1.20;;;;;;;;;;10266103;28;20225;-76
2023/04/18 20:42:02;;;;;;;6.72;2.40;;;;;;;;;;10251519;28;20214;-75
2023/04/18 20:47:04;;;;;;;1.75;1.65;;;;;;;;;;10256193;28;20236;-75
2023/04/18 20:52:08;;;;;;;1.88;1.70;;;;;;;;;;10268272;28;20328;-77
2023/04/18 20:57:09;;;;;;;1.95;1.80;;;;;;;;;;10254288;28;20222;-78
2023/04/18 21:02:10;;;;;;;1.52;1.52;;;;;;;;;;10237985;28;20280;-76
2023/04/18 21:07:11;;;;;;;1.77;1.75;;;;;;;;;;10262070;28;20221;-77
2023/04/18 21:12:12;;;;;;;2.92;1.50;;;;;;;;;;10267628;28;20224;-75
2023/04/18 21:17:16;;;;;;;2.20;2.00;;;;;;;;;;10253837;28;20233;-76
2023/04/18 21:22:17;;;;;;;2.28;2.08;;;;;;;;;;10251966;28;20252;-75
2023/04/18 21:27:18;;;;;;;1.48;1.38;;;;;;;;;;10266944;28;20235;-76
2023/04/18 21:32:19;;;;;;;1.55;1.45;;;;;;;;;;10253324;28;20726;-75
2023/04/18 21:37:20;;;;;;;1.40;1.30;;;;;;;;;;10245149;28;20222;-75
2023/04/18 21:42:21;;;;;;;1.20;1.20;;;;;;;;;;10252553;28;20222;-74
2023/04/18 21:47:24;;;;;;;2.50;1.88;;;;;;;;;;10266039;28;20225;-76
2023/04/18 21:52:25;;;;;;;1.35;1.17;;;;;;;;;;10249638;28;20225;-79
2023/04/18 21:57:26;;;;;;;2.80;1.52;;;;;;;;;;10234480;28;20256;-75
2023/04/18 22:02:27;;;;;;;1.60;1.50;;;;;;;;;;10225718;28;20264;-75
2023/04/18 22:07:29;;;;;;;1.73;1.63;;;;;;;;;;10227495;28;20241;-75
2023/04/18 22:12:31;;;;;;;1.70;1.63;;;;;;;;;;10239426;28;20225;-77
2023/04/18 22:17:33;;;;;;;2.58;1.33;;;;;;;;;;10264681;28;20218;-75
2023/04/18 22:22:34;;;;;;;1.80;1.70;;;;;;;;;;10251865;28;20225;-76
2023/04/18 22:27:35;;;;;;;2.38;2.25;;;;;;;;;;10274045;28;20222;-75
2023/04/18 22:32:37;;;;;;;1.90;1.80;;;;;;;;;;10254675;28;20248;-75
2023/04/18 22:37:38;;;;;;;2.60;2.40;;;;;;;;;;10258222;28;20225;-76
2023/04/18 22:42:39;;;;;;;2.22;2.13;;;;;;;;;;10260508;28;20236;-76
2023/04/18 22:47:40;;;;;;;2.20;2.10;;;;;;;;;;10240419;28;20223;-77
2023/04/18 22:52:41;;;;;;;3.05;2.75;;;;;;;;;;10269865;28;20228;-75
2023/04/18 22:57:42;;;;;;;1.83;1.73;;;;;;;;;;10225825;28;20796;-75
2023/04/18 23:02:43;;;;;;;1.92;1.83;;;;;;;;;;10257676;28;20287;-76
2023/04/18 23:07:44;;;;;;;1.60;1.40;;;;;;;;;;10260843;28;20222;-75
2023/04/18 23:12:45;;;;;;;1.73;1.65;;;;;;;;;;10255561;28;21167;-78
2023/04/18 23:17:45;;;;;;;1.80;1.70;;;;;;;;;;10271668;28;20267;-76
2023/04/18 23:22:50;;;;;;;6.15;1.48;;;;;;;;;;10266793;28;20245;-77
2023/04/18 23:27:51;;;;;;;2.25;1.20;;;;;;;;;;10258589;28;20684;-75
2023/04/18 23:32:52;;;;;;;1.25;1.13;;;;;;;;;;10243320;28;20229;-78
2023/04/18 23:37:53;;;;;;;1.50;1.40;;;;;;;;;;10237142;28;20225;-76
2023/04/18 23:42:54;;;;;;;6.03;1.80;;;;;;;;;;10256791;28;20257;-78
2023/04/18 23:47:55;;;;;;;2.10;1.17;;;;;;;;;;10252958;28;20243;-79
2023/04/18 23:52:56;;;;;;;3.13;0.90;;;;;;;;;;10255249;28;20221;-73
2023/04/18 23:57:57;;;;;;;1.10;1.10;;;;;;;;;;10271885;28;20221;-76
